Time;durP1;ratioP1;P1;durP2;ratioP2;P2;SDS_P1;SDS_P2;PMS_P1;PMS_P2;Temp;Humidity;BMP_temperature;BMP_pressure;BME280_temperature;BME280_humidity;BME280_pressure;Samples;Min_cycle;Max_cycle;Signal;HPM_P1;HPM_P2
2021/01/16 00:00:26;;;;;;;15.05;11.27;;;;;;;3.25;45.05;93520.63;4960413;28;20074;-75
2021/01/16 00:02:52;;;;;;;19.38;11.85;;;;;;;3.20;45.75;93520.59;4963458;28;20445;-77
2021/01/16 00:05:23;;;;;;;18.63;12.13;;;;;;;3.21;46.04;93526.59;4955046;28;20046;-76
2021/01/16 00:08:03;;;;;;;18.45;12.30;;;;;;;3.18;46.02;93527.09;4959513;28;20518;-76
2021/01/16 00:10:30;;;;;;;18.73;13.23;;;;;;;3.10;46.24;93527.56;4965650;28;20030;-76
2021/01/16 00:12:56;;;;;;;21.50;14.20;;;;;;;3.08;46.70;93521.81;4961521;28;20446;-76
2021/01/16 00:15:22;;;;;;;21.58;14.15;;;;;;;3.04;46.77;93509.22;4961577;28;20491;-76
2021/01/16 00:18:04;;;;;;;21.65;14.13;;;;;;;3.10;47.00;93510.06;4977170;28;20054;-76
2021/01/16 00:20:31;;;;;;;19.33;12.82;;;;;;;3.11;47.17;93505.63;4976108;28;20038;-76
2021/01/16 00:22:57;;;;;;;18.40;12.50;;;;;;;3.11;46.81;93500.41;4959122;28;20384;-76
2021/01/16 00:25:22;;;;;;;20.60;15.15;;;;;;;3.10;46.96;93504.06;4963150;28;20034;-76
2021/01/16 00:27:48;;;;;;;18.60;13.25;;;;;;;3.16;46.69;93503.84;4961728;28;20041;-76
2021/01/16 00:30:16;;;;;;;16.52;12.20;;;;;;;3.10;46.36;93493.59;4956502;28;20059;-76
2021/01/16 00:32:41;;;;;;;22.23;13.63;;;;;;;3.14;46.46;93489.47;4960227;28;20043;-76
2021/01/16 00:35:15;;;;;;;18.05;11.18;;;;;;;3.17;45.64;93502.03;4960585;28;20073;-76
2021/01/16 00:37:42;;;;;;;19.95;11.00;;;;;;;3.14;45.58;93497.28;4960169;28;20514;-77
2021/01/16 00:40:10;;;;;;;18.50;10.65;;;;;;;3.10;45.54;93483.16;4964427;28;20042;-76
2021/01/16 00:42:43;;;;;;;12.23;9.77;;;;;;;3.12;45.16;93488.94;4961630;28;20059;-76
2021/01/16 00:45:10;;;;;;;15.18;9.45;;;;;;;3.08;44.78;93480.03;4960695;28;20046;-76
2021/01/16 00:47:36;;;;;;;12.50;8.15;;;;;;;3.09;44.57;93486.81;4963798;28;20030;-76
2021/01/16 00:50:06;;;;;;;14.98;8.68;;;;;;;2.95;44.83;93476.00;4958108;28;20104;-76
2021/01/16 00:52:33;;;;;;;12.90;8.20;;;;;;;3.10;44.22;93483.16;4963970;28;20026;-76
2021/01/16 00:54:58;;;;;;;12.95;7.07;;;;;;;3.10;44.25;93483.97;4961271;28;20145;-76
2021/01/16 00:57:26;;;;;;;12.95;9.32;;;;;;;3.01;43.75;93467.19;4963658;28;20035;-76
2021/01/16 00:59:51;;;;;;;8.57;6.50;;;;;;;2.98;43.36;93470.31;4943539;28;20056;-76
2021/01/16 01:02:17;;;;;;;10.45;6.50;;;;;;;3.12;44.02;93486.31;4959920;28;20038;-75
2021/01/16 01:04:42;;;;;;;10.27;6.93;;;;;;;3.11;43.91;93475.09;4961879;28;20026;-76
2021/01/16 01:07:12;;;;;;;7.40;5.85;;;;;;;3.04;43.78;93477.91;4960916;28;20133;-77
2021/01/16 01:09:39;;;;;;;10.48;6.00;;;;;;;3.08;43.94;93483.41;4953342;28;22215;-77
2021/01/16 01:12:06;;;;;;;9.93;7.15;;;;;;;3.08;43.46;93482.66;4960927;28;20042;-76
2021/01/16 01:14:32;;;;;;;12.93;7.80;;;;;;;3.03;44.15;93478.16;4961757;28;20638;-76
2021/01/16 01:16:57;;;;;;;11.93;9.30;;;;;;;3.05;43.74;93471.66;4961469;28;20034;-77
2021/01/16 01:19:22;;;;;;;13.13;9.18;;;;;;;3.10;43.70;93483.16;4964435;28;20018;-76
2021/01/16 01:21:48;;;;;;;12.07;8.85;;;;;;;3.08;43.64;93469.59;4961296;28;20058;-76
2021/01/16 01:24:13;;;;;;;16.80;10.75;;;;;;;3.14;43.88;93479.81;4958388;28;20045;-76
2021/01/16 01:26:39;;;;;;;13.15;8.00;;;;;;;3.10;43.73;93477.94;4962396;28;20825;-77
2021/01/16 01:29:05;;;;;;;10.13;6.88;;;;;;;3.19;43.59;93476.44;4959232;28;20062;-76
2021/01/16 01:31:31;;;;;;;9.55;6.95;;;;;;;3.21;43.65;93469.16;4968291;28;20051;-76
2021/01/16 01:33:57;;;;;;;9.88;6.32;;;;;;;3.22;43.69;93465.53;4958413;28;20042;-76
2021/01/16 01:36:22;;;;;;;15.00;9.15;;;;;;;3.22;43.48;93468.91;4960053;28;20038;-76
2021/01/16 01:38:48;;;;;;;15.63;10.45;;;;;;;3.20;44.00;93470.19;4961232;28;20455;-76
2021/01/16 01:41:13;;;;;;;15.60;10.30;;;;;;;3.26;44.34;93471.81;4961538;28;20378;-76
2021/01/16 01:43:39;;;;;;;15.77;10.63;;;;;;;3.28;44.17;93474.94;4957864;28;20026;-76
2021/01/16 01:46:04;;;;;;;13.50;8.75;;;;;;;3.26;43.77;93462.16;4958797;28;20030;-77
2021/01/16 01:48:31;;;;;;;13.52;9.73;;;;;;;3.31;44.06;93461.41;4959144;28;20035;-76
2021/01/16 01:50:59;;;;;;;12.60;9.13;;;;;;;3.27;44.29;93449.88;4959030;28;20047;-76
2021/01/16 01:53:26;;;;;;;15.55;10.45;;;;;;;3.27;43.97;93453.28;4962247;28;20053;-76
2021/01/16 01:55:55;;;;;;;12.40;9.38;;;;;;;3.28;44.30;93456.66;4957226;28;20031;-77
2021/01/16 01:58:25;;;;;;;13.35;8.80;;;;;;;3.23;44.06;93456.63;4963694;28;20179;-76
2021/01/16 02:00:54;;;;;;;12.02;9.02;;;;;;;3.22;44.33;93455.06;4962816;28;20432;-76
2021/01/16 02:03:24;;;;;;;10.70;8.32;;;;;;;3.14;44.58;93445.06;4959160;28;20133;-74
2021/01/16 02:05:54;;;;;;;14.18;8.13;;;;;;;3.17;44.57;93462.88;4959469;28;20049;-76
2021/01/16 02:08:20;;;;;;;8.48;6.63;;;;;;;3.14;43.84;93451.09;4961790;28;20045;-75
2021/01/16 02:10:45;;;;;;;8.95;6.45;;;;;;;3.14;43.95;93458.91;4960457;28;20030;-75
2021/01/16 02:13:11;;;;;;;15.73;7.88;;;;;;;3.07;44.28;93441.91;4959744;28;20198;-75
2021/01/16 02:15:42;;;;;;;8.50;6.88;;;;;;;3.01;44.18;93449.72;4961646;28;20097;-75
2021/01/16 02:18:44;;;;;;;6.05;5.45;;;;;;;3.02;44.34;93450.50;4959460;28;20106;-74
2021/01/16 02:21:12;;;;;;;6.40;5.47;;;;;;;3.01;44.48;93454.94;4961533;28;20039;-76
2021/01/16 02:23:50;;;;;;;6.43;5.80;;;;;;;3.05;44.52;93452.59;4971727;28;20035;-75
2021/01/16 02:26:15;;;;;;;7.85;5.70;;;;;;;3.05;44.83;93455.19;4960988;28;21087;-75
2021/01/16 02:28:57;;;;;;;8.40;6.22;;;;;;;2.96;45.00;93454.88;4959150;28;20498;-75
2021/01/16 02:31:46;;;;;;;7.82;6.15;;;;;;;2.96;45.18;93454.88;4960472;28;20108;-75
2021/01/16 02:34:15;;;;;;;8.25;5.88;;;;;;;2.94;45.51;93453.53;4960017;28;20038;-75
2021/01/16 02:36:52;;;;;;;9.25;6.50;;;;;;;2.83;45.59;93455.31;4958382;28;20571;-75
2021/01/16 02:39:36;;;;;;;8.15;6.22;;;;;;;2.88;45.71;93451.97;4962032;28;20047;-75
2021/01/16 02:42:08;;;;;;;7.82;6.53;;;;;;;2.87;45.82;93450.38;4961077;28;20062;-75
2021/01/16 02:44:36;;;;;;;9.05;6.80;;;;;;;2.88;46.14;93452.72;4975331;28;20046;-75
2021/01/16 02:47:26;;;;;;;11.85;7.13;;;;;;;2.94;46.14;93453.53;4956834;28;20522;-75
2021/01/16 02:49:58;;;;;;;10.18;7.18;;;;;;;2.90;46.55;93440.22;4958406;28;20181;-75
2021/01/16 02:52:29;;;;;;;10.80;6.78;;;;;;;2.93;46.91;93444.94;4977787;28;20039;-75
2021/01/16 02:54:56;;;;;;;11.15;7.47;;;;;;;2.91;47.28;93449.63;4966128;28;20129;-75
2021/01/16 02:57:22;;;;;;;8.70;7.28;;;;;;;2.88;47.19;93442.28;4963426;28;20108;-75
2021/01/16 02:59:48;;;;;;;11.80;8.05;;;;;;;2.78;47.36;93441.44;4964610;28;20049;-75
2021/01/16 03:02:16;;;;;;;12.57;7.57;;;;;;;2.68;47.77;93449.19;4960132;28;20043;-75
2021/01/16 03:04:42;;;;;;;13.00;7.97;;;;;;;2.73;47.86;93446.63;4965872;28;20080;-75
2021/01/16 03:07:12;;;;;;;13.15;8.77;;;;;;;2.77;48.22;93445.06;4980208;28;20085;-75
2021/01/16 03:09:39;;;;;;;13.65;9.32;;;;;;;2.72;47.99;93445.81;4963657;28;20043;-74
2021/01/16 03:12:06;;;;;;;13.60;9.00;;;;;;;2.74;48.35;93445.56;4961419;28;20073;-76
2021/01/16 03:15:01;;;;;;;11.63;8.60;;;;;;;2.64;48.36;93435.81;4962502;28;20057;-74
2021/01/16 03:17:48;;;;;;;13.40;9.25;;;;;;;2.59;48.41;93448.84;4961237;28;20177;-76
2021/01/16 03:20:18;;;;;;;14.07;9.80;;;;;;;2.59;49.10;93451.47;4963767;28;20046;-77
2021/01/16 03:22:44;;;;;;;14.95;9.73;;;;;;;2.63;49.06;93447.31;4957940;28;20032;-76
2021/01/16 03:25:10;;;;;;;16.48;11.27;;;;;;;2.67;49.24;93451.00;4965071;28;20022;-76
2021/01/16 03:27:35;;;;;;;13.45;9.48;;;;;;;2.62;49.09;93443.13;4962183;28;20075;-76
2021/01/16 03:30:01;;;;;;;14.60;9.70;;;;;;;2.68;49.30;93444.75;4963664;28;20525;-76
2021/01/16 03:32:27;;;;;;;14.63;10.07;;;;;;;2.72;49.14;93448.44;4964463;28;20043;-76
2021/01/16 03:34:53;;;;;;;15.68;11.05;;;;;;;2.68;49.20;93442.13;4963275;28;20132;-76
2021/01/16 03:37:20;;;;;;;14.93;10.60;;;;;;;2.63;49.55;93452.53;4961396;28;20391;-76
2021/01/16 03:39:46;;;;;;;17.48;10.40;;;;;;;2.61;49.61;93451.97;4964599;28;20082;-76
2021/01/16 03:42:11;;;;;;;16.27;10.73;;;;;;;2.67;49.74;93453.59;4961161;28;20865;-77
2021/01/16 03:44:37;;;;;;;18.08;11.43;;;;;;;2.71;49.45;93451.28;4964076;28;20078;-76
2021/01/16 03:47:03;;;;;;;16.00;10.85;;;;;;;2.66;49.38;93451.22;4960812;28;20058;-75
2021/01/16 03:49:29;;;;;;;14.00;10.32;;;;;;;2.66;49.67;93438.97;4968773;28;20895;-76
2021/01/16 03:51:55;;;;;;;17.00;11.13;;;;;;;2.63;49.41;93439.50;4958697;28;20128;-76
2021/01/16 03:54:20;;;;;;;16.40;11.32;;;;;;;2.52;49.62;93441.22;4964263;28;20046;-76
2021/01/16 03:56:46;;;;;;;16.10;10.38;;;;;;;2.56;49.73;93446.72;4959299;28;20125;-76
2021/01/16 03:59:11;;;;;;;15.55;11.40;;;;;;;2.53;49.97;93434.97;4958956;28;20034;-77
2021/01/16 04:01:37;;;;;;;17.48;11.38;;;;;;;2.65;49.93;93444.44;4959002;28;20523;-76
2021/01/16 04:04:03;;;;;;;15.30;10.32;;;;;;;2.65;49.48;93447.84;4963131;28;20026;-76
2021/01/16 04:06:29;;;;;;;13.88;9.93;;;;;;;2.61;49.49;93431.91;4963256;28;20046;-76
2021/01/16 04:08:55;;;;;;;15.65;10.63;;;;;;;2.54;49.83;93435.75;4960682;28;20057;-76
2021/01/16 04:11:20;;;;;;;16.58;11.05;;;;;;;2.42;50.06;93435.13;4961763;28;20660;-76
2021/01/16 04:13:46;;;;;;;19.58;11.13;;;;;;;2.43;49.80;93439.31;4961144;28;20058;-75
2021/01/16 04:16:11;;;;;;;15.25;10.23;;;;;;;2.38;49.71;93441.84;4966219;28;20031;-76
2021/01/16 04:18:36;;;;;;;17.35;11.48;;;;;;;2.28;49.98;93434.72;4960428;28;20097;-76
2021/01/16 04:21:03;;;;;;;20.90;12.10;;;;;;;2.33;49.49;93431.38;4964087;28;20053;-75
2021/01/16 04:23:29;;;;;;;15.82;10.93;;;;;;;2.29;49.50;93435.53;4957061;28;20035;-76
2021/01/16 04:25:54;;;;;;;19.52;11.45;;;;;;;2.27;49.92;93427.94;4960620;28;20089;-76
2021/01/16 04:28:20;;;;;;;15.52;10.55;;;;;;;2.28;49.64;93434.72;4967516;28;20030;-76
2021/01/16 04:30:45;;;;;;;16.65;11.48;;;;;;;2.17;49.49;93444.25;4960601;28;20074;-76
2021/01/16 04:33:11;;;;;;;17.08;10.85;;;;;;;2.15;49.33;93454.13;4961728;28;20089;-76
2021/01/16 04:35:37;;;;;;;17.80;12.05;;;;;;;2.14;49.56;93449.97;4963302;28;20038;-76
2021/01/16 04:38:03;;;;;;;18.17;12.77;;;;;;;2.13;49.75;93453.59;4964723;28;20951;-76
2021/01/16 04:40:29;;;;;;;24.90;14.82;;;;;;;2.02;49.53;93446.72;4966174;28;20045;-76
2021/01/16 04:42:55;;;;;;;17.67;11.05;;;;;;;2.15;49.75;93451.53;4961151;28;20069;-77
2021/01/16 04:45:21;;;;;;;18.60;11.32;;;;;;;2.15;49.58;93448.91;4962140;28;20634;-76
2021/01/16 04:47:49;;;;;;;16.73;10.65;;;;;;;2.22;49.55;93455.78;4961762;28;20050;-76
2021/01/16 04:50:17;;;;;;;19.02;11.65;;;;;;;2.15;49.42;93459.34;4963302;28;20038;-77
2021/01/16 04:52:44;;;;;;;15.60;11.27;;;;;;;2.07;49.42;93445.97;4973162;28;20628;-76
2021/01/16 04:55:12;;;;;;;15.48;10.50;;;;;;;2.08;49.40;93450.16;4964711;28;20019;-76
2021/01/16 04:57:38;;;;;;;15.30;10.52;;;;;;;2.07;49.41;93459.78;4961067;28;20030;-76
2021/01/16 05:00:10;;;;;;;17.67;11.75;;;;;;;2.04;49.76;93456.91;4964939;28;20507;-77
2021/01/16 05:02:39;;;;;;;20.60;12.98;;;;;;;1.97;49.68;93449.25;4961841;28;20066;-76
2021/01/16 05:05:06;;;;;;;17.50;11.35;;;;;;;1.93;49.49;93448.16;4957466;28;20034;-76
2021/01/16 05:07:34;;;;;;;17.25;10.70;;;;;;;2.00;49.00;93467.03;4966550;28;20043;-76
2021/01/16 05:10:01;;;;;;;17.35;10.35;;;;;;;1.95;49.53;93471.38;4977405;28;20042;-76
2021/01/16 05:12:32;;;;;;;16.80;11.00;;;;;;;1.89;48.89;93477.56;4957439;28;20066;-77
2021/01/16 05:15:09;;;;;;;15.55;10.82;;;;;;;1.81;49.03;93460.53;4963046;28;20050;-76
2021/01/16 05:17:39;;;;;;;26.45;13.38;;;;;;;1.85;48.65;93456.44;4963068;28;20130;-76
2021/01/16 05:20:07;;;;;;;21.27;12.63;;;;;;;1.91;48.35;93471.06;4957352;28;20042;-77
2021/01/16 05:22:32;;;;;;;23.38;13.68;;;;;;;1.90;47.73;93474.72;4966721;28;20040;-76
2021/01/16 05:25:01;;;;;;;15.32;10.10;;;;;;;1.90;47.63;93471.34;4958780;28;20038;-76
2021/01/16 05:27:33;;;;;;;15.73;10.63;;;;;;;1.89;47.54;93467.94;4962001;28;24768;-76
2021/01/16 05:30:22;;;;;;;16.65;10.13;;;;;;;1.84;46.97;93473.09;4960058;28;20209;-76
2021/01/16 05:32:47;;;;;;;16.70;9.52;;;;;;;1.79;47.02;93467.03;4955571;28;20051;-76
2021/01/16 05:35:20;;;;;;;16.85;9.65;;;;;;;1.71;47.14;93478.66;4959134;28;20081;-76
2021/01/16 05:37:47;;;;;;;16.23;9.75;;;;;;;1.70;47.31;93479.69;4959968;28;20491;-77
2021/01/16 05:40:14;;;;;;;16.25;9.45;;;;;;;1.72;47.45;93461.97;4962633;28;20043;-77
2021/01/16 05:42:40;;;;;;;14.38;9.80;;;;;;;1.70;47.63;93479.69;4954709;28;20057;-75
2021/01/16 05:45:08;;;;;;;14.82;10.18;;;;;;;1.72;47.60;93478.41;4961736;28;20047;-75
2021/01/16 05:47:35;;;;;;;16.42;10.52;;;;;;;1.67;47.46;93456.72;4959664;28;20070;-75
2021/01/16 05:50:01;;;;;;;17.17;10.35;;;;;;;1.74;47.11;93465.16;4961854;28;20045;-75
2021/01/16 05:52:27;;;;;;;19.08;10.27;;;;;;;1.72;46.95;93452.34;4960726;28;20030;-75
2021/01/16 05:54:57;;;;;;;17.00;10.73;;;;;;;1.80;46.76;93464.19;4961449;28;20121;-75
2021/01/16 05:57:24;;;;;;;18.48;10.75;;;;;;;1.83;46.78;93468.91;4956808;28;20046;-75
2021/01/16 05:59:54;;;;;;;15.95;10.73;;;;;;;1.74;46.51;93444.31;4960624;28;20104;-75
2021/01/16 06:02:21;;;;;;;13.77;9.20;;;;;;;1.76;46.72;93450.03;4971659;28;20042;-75
2021/01/16 06:04:46;;;;;;;16.38;10.05;;;;;;;1.86;46.38;93457.22;4975612;28;20054;-75
2021/01/16 06:07:12;;;;;;;15.52;9.80;;;;;;;1.79;46.39;93449.56;4962504;28;20027;-75
2021/01/16 06:09:38;;;;;;;13.52;9.48;;;;;;;1.90;46.63;93463.50;4955835;28;20649;-74
2021/01/16 06:12:11;;;;;;;13.70;8.73;;;;;;;1.86;46.51;93465.03;4958093;28;20997;-75
2021/01/16 06:14:44;;;;;;;14.95;10.30;;;;;;;1.88;46.51;93461.13;4955681;28;20132;-74
2021/01/16 06:17:11;;;;;;;13.95;9.18;;;;;;;1.87;46.32;93469.97;4958763;28;20043;-75
2021/01/16 06:19:42;;;;;;;14.73;9.75;;;;;;;1.77;46.30;93454.22;4973183;28;20038;-75
2021/01/16 06:22:10;;;;;;;16.05;10.13;;;;;;;1.76;45.85;93459.69;4962021;28;20023;-75
2021/01/16 06:24:37;;;;;;;14.18;9.73;;;;;;;1.71;46.31;93444.81;4958039;28;20093;-75
2021/01/16 06:27:04;;;;;;;15.07;9.25;;;;;;;1.78;45.89;93461.03;4959984;28;20056;-74
2021/01/16 06:29:31;;;;;;;13.10;9.02;;;;;;;1.78;45.81;93448.00;4963678;28;20035;-74
2021/01/16 06:32:11;;;;;;;17.88;10.57;;;;;;;1.78;45.53;93455.81;4961686;28;20054;-75
2021/01/16 06:34:41;;;;;;;13.10;9.20;;;;;;;1.78;45.18;93449.81;4963703;28;20376;-75
2021/01/16 06:37:12;;;;;;;14.77;8.27;;;;;;;1.87;44.47;93459.56;4965416;28;20604;-75
2021/01/16 06:39:47;;;;;;;13.88;8.15;;;;;;;1.80;42.27;93458.19;4962475;28;20039;-75
2021/01/16 06:42:23;;;;;;;10.30;7.35;;;;;;;1.70;41.12;93451.03;4957746;28;20321;-76
2021/01/16 06:45:01;;;;;;;9.52;7.28;;;;;;;1.75;41.01;93461.50;4969266;28;20035;-75
2021/01/16 06:47:27;;;;;;;13.10;8.27;;;;;;;1.78;40.92;93458.41;4966064;28;20074;-76
2021/01/16 06:50:00;;;;;;;11.63;6.93;;;;;;;1.68;40.07;93460.91;4959093;28;20030;-76
2021/01/16 06:52:36;;;;;;;12.13;7.45;;;;;;;1.72;40.67;93467.19;4965529;28;20181;-75
2021/01/16 06:55:05;;;;;;;12.40;7.22;;;;;;;1.67;40.67;93454.91;4959682;28;20042;-76
2021/01/16 06:57:34;;;;;;;10.07;7.28;;;;;;;1.71;40.78;93470.84;4957307;28;20041;-75
2021/01/16 07:00:05;;;;;;;15.77;8.48;;;;;;;1.72;40.97;93461.97;4959032;28;20069;-75
2021/01/16 07:02:35;;;;;;;13.18;8.38;;;;;;;1.83;40.79;93468.91;4952432;28;20069;-75
2021/01/16 07:05:19;;;;;;;12.77;8.20;;;;;;;1.83;41.65;93458.47;4954173;28;20096;-75
2021/01/16 07:07:48;;;;;;;13.57;8.15;;;;;;;1.84;41.25;93465.28;4972240;28;20027;-76
2021/01/16 07:10:16;;;;;;;12.55;9.07;;;;;;;1.79;40.98;93462.59;4962482;28;20105;-76
2021/01/16 07:12:47;;;;;;;13.10;8.95;;;;;;;1.90;40.92;93468.72;4954739;28;20039;-76
2021/01/16 07:15:14;;;;;;;13.98;8.25;;;;;;;1.95;41.26;93474.00;4957515;28;20046;-75
2021/01/16 07:17:39;;;;;;;13.27;8.70;;;;;;;1.99;41.46;93473.25;4960204;28;20038;-76
2021/01/16 07:20:07;;;;;;;12.93;8.45;;;;;;;1.89;42.11;93462.72;4955568;28;20496;-76
2021/01/16 07:22:35;;;;;;;12.60;8.15;;;;;;;1.76;42.15;93460.47;4961146;28;20081;-75
2021/01/16 07:25:03;;;;;;;15.02;10.23;;;;;;;1.95;42.96;93472.19;4957657;28;20039;-74
2021/01/16 07:27:29;;;;;;;15.38;9.93;;;;;;;1.93;42.78;93479.44;4956598;28;20056;-75
2021/01/16 07:29:58;;;;;;;21.83;12.90;;;;;;;2.03;43.27;93484.78;4957998;28;20043;-75
2021/01/16 07:32:46;;;;;;;14.82;9.35;;;;;;;2.00;43.16;93479.25;4957178;28;20605;-75
2021/01/16 07:35:13;;;;;;;16.23;10.52;;;;;;;2.01;43.76;93480.81;4959283;28;20049;-75
2021/01/16 07:37:42;;;;;;;16.58;10.60;;;;;;;1.93;43.86;93453.38;4957703;28;20511;-76
2021/01/16 07:40:16;;;;;;;14.73;10.25;;;;;;;2.00;43.78;93485.28;4963004;28;20121;-75
2021/01/16 07:43:00;;;;;;;15.93;9.98;;;;;;;1.88;43.95;93468.16;4955409;28;20070;-75
2021/01/16 07:45:31;;;;;;;18.95;12.35;;;;;;;1.92;44.32;93484.88;4962354;28;20576;-75
2021/01/16 07:47:58;;;;;;;15.45;9.82;;;;;;;1.96;44.47;93478.94;4974176;28;20058;-75
2021/01/16 07:50:29;;;;;;;13.65;8.95;;;;;;;1.83;44.69;93479.31;4963485;28;20034;-74
2021/01/16 07:53:05;;;;;;;19.05;9.95;;;;;;;1.86;44.94;93483.28;4959557;28;20050;-75
2021/01/16 07:55:36;;;;;;;;;;;;;;;1.90;45.47;93485.16;4966283;28;20042;-75
2021/01/16 07:58:26;;;;;;;15.98;10.40;;;;;;;1.74;45.48;93480.78;4959961;28;19929;-75
2021/01/16 08:01:10;;;;;;;30.92;20.00;;;;;;;1.83;46.16;93476.72;4969287;28;20050;-75
2021/01/16 08:03:44;;;;;;;32.15;19.45;;;;;;;1.95;46.34;93477.38;4972926;28;20053;-75
2021/01/16 08:06:31;;;;;;;20.58;13.15;;;;;;;1.93;45.91;93479.44;4957090;28;20519;-76
2021/01/16 08:09:11;;;;;;;19.20;11.05;;;;;;;1.95;45.83;93477.38;4954955;28;20118;-76
2021/01/16 08:11:42;;;;;;;16.15;9.52;;;;;;;1.88;45.91;93476.78;4956658;28;20035;-76
2021/01/16 08:14:08;;;;;;;37.75;21.77;;;;;;;1.98;45.93;93482.09;4969445;28;20046;-75
2021/01/16 08:16:34;;;;;;;20.05;13.50;;;;;;;1.99;46.01;93486.28;4960711;28;20165;-75
2021/01/16 08:19:24;;;;;;;20.70;12.05;;;;;;;2.08;46.22;93487.44;4961189;28;20046;-75
2021/01/16 08:21:57;;;;;;;13.57;9.65;;;;;;;2.08;46.33;93482.22;4952709;28;20110;-75
2021/01/16 08:24:25;;;;;;;19.73;11.07;;;;;;;2.16;46.48;93494.03;4961136;28;20034;-75
2021/01/16 08:26:55;;;;;;;17.60;10.77;;;;;;;2.23;46.80;93497.25;4954461;28;20054;-76
2021/01/16 08:29:22;;;;;;;19.02;12.55;;;;;;;2.29;47.11;93500.69;4962022;28;20129;-76
2021/01/16 08:31:48;;;;;;;17.90;10.38;;;;;;;2.28;46.81;93496.50;4961885;28;20090;-76
2021/01/16 08:34:49;;;;;;;16.48;11.32;;;;;;;2.25;47.10;93497.00;4958637;28;20478;-75
2021/01/16 08:37:34;;;;;;;18.95;11.50;;;;;;;2.22;47.27;93493.06;4957577;28;20043;-75
2021/01/16 08:40:02;;;;;;;20.63;11.60;;;;;;;2.14;47.56;93499.50;4957098;28;20519;-76
2021/01/16 08:42:29;;;;;;;15.77;11.30;;;;;;;2.26;47.70;93493.34;4954267;28;20495;-76
2021/01/16 08:44:58;;;;;;;16.90;11.63;;;;;;;2.28;47.57;93512.16;4959492;28;20026;-75
2021/01/16 08:47:24;;;;;;;24.67;14.25;;;;;;;2.33;47.46;93510.41;4957033;28;20511;-75
2021/01/16 08:49:51;;;;;;;18.17;12.27;;;;;;;2.38;47.35;93501.84;4958809;28;20035;-76
2021/01/16 08:52:36;;;;;;;16.33;11.00;;;;;;;2.25;46.67;93497.00;4960573;28;20031;-75
2021/01/16 08:55:03;;;;;;;;;;;;;;;2.17;45.99;93501.63;4955307;28;20320;-75
2021/01/16 08:57:31;;;;;;;15.30;10.25;;;;;;;1.95;46.43;93497.44;4957829;28;19926;-75
2021/01/16 09:00:13;;;;;;;15.13;9.45;;;;;;;1.63;46.00;93510.31;4956632;28;20039;-75
2021/01/16 09:02:39;;;;;;;16.25;10.25;;;;;;;1.66;46.29;93496.81;4959577;28;20410;-75
2021/01/16 09:05:22;;;;;;;13.43;7.85;;;;;;;1.45;45.14;93487.16;4972151;28;20046;-74
2021/01/16 09:07:47;;;;;;;14.18;9.25;;;;;;;1.58;44.80;93499.81;4960766;28;20031;-75
2021/01/16 09:10:22;;;;;;;13.02;8.70;;;;;;;1.55;44.62;93497.72;4960096;28;20756;-77
2021/01/16 09:12:47;;;;;;;14.10;8.45;;;;;;;1.44;43.95;93506.41;4954298;28;20051;-77
2021/01/16 09:15:35;;;;;;;14.23;8.02;;;;;;;1.53;44.07;93484.91;4942762;28;20425;-77
2021/01/16 09:18:11;;;;;;;14.07;10.13;;;;;;;1.87;44.55;93490.81;4955994;28;20536;-75
2021/01/16 09:20:39;;;;;;;15.10;9.32;;;;;;;1.86;43.90;93486.63;4955681;28;20047;-75
2021/01/16 09:23:37;;;;;;;12.70;7.63;;;;;;;2.04;43.37;93483.75;4954238;28;20046;-75
2021/01/16 09:26:16;;;;;;;13.77;8.93;;;;;;;2.30;43.16;93484.03;4956881;28;20059;-75
2021/01/16 09:28:44;;;;;;;11.80;8.00;;;;;;;2.36;42.98;93475.22;4956347;28;20035;-75
2021/01/16 09:31:36;;;;;;;16.58;9.02;;;;;;;2.50;42.57;93471.16;4959323;28;20054;-75
2021/01/16 09:34:09;;;;;;;12.98;9.75;;;;;;;2.51;42.51;93470.94;4947715;28;20042;-75
2021/01/16 09:36:58;;;;;;;14.68;9.52;;;;;;;2.32;42.17;93466.31;4968122;28;20559;-74
2021/01/16 09:39:32;;;;;;;15.88;9.93;;;;;;;2.17;42.30;93466.94;4970710;28;20043;-75
2021/01/16 09:42:00;;;;;;;14.57;10.77;;;;;;;2.33;42.46;93467.88;4955862;28;20042;-75
2021/01/16 09:44:37;;;;;;;21.83;13.05;;;;;;;2.41;42.66;93460.41;4944069;28;20057;-74
2021/01/16 09:47:03;;;;;;;13.35;10.02;;;;;;;2.41;42.03;93454.41;4950188;28;20058;-75
2021/01/16 09:49:44;;;;;;;15.80;9.60;;;;;;;2.44;42.02;93446.09;4955969;28;20040;-75
2021/01/16 09:52:11;;;;;;;18.95;12.82;;;;;;;2.56;41.72;93441.50;4956035;28;20571;-75
2021/01/16 09:54:40;;;;;;;17.67;12.77;;;;;;;2.65;40.59;93447.03;4951154;28;20062;-74
2021/01/16 09:57:06;;;;;;;16.67;10.55;;;;;;;2.70;40.06;93445.28;4955946;28;20040;-75
2021/01/16 09:59:31;;;;;;;15.18;11.20;;;;;;;2.71;39.76;93433.81;4953469;28;20057;-75
2021/01/16 10:02:16;;;;;;;15.57;11.45;;;;;;;2.77;39.06;93430.22;4946611;28;20462;-75
2021/01/16 10:04:45;;;;;;;13.95;9.27;;;;;;;2.79;38.57;93430.72;4970487;28;20038;-75
2021/01/16 10:07:13;;;;;;;22.50;14.35;;;;;;;2.85;39.03;93419.31;4961589;28;20023;-74
2021/01/16 10:09:49;;;;;;;18.15;10.35;;;;;;;3.03;37.93;93431.94;4956193;28;20475;-75
2021/01/16 10:12:32;;;;;;;40.30;25.50;;;;;;;3.20;38.59;93429.19;4949543;28;20069;-74
2021/01/16 10:15:01;;;;;;;32.65;22.98;;;;;;;3.42;39.04;93435.06;4947956;28;20046;-75
2021/01/16 10:17:29;;;;;;;21.17;15.00;;;;;;;3.77;38.78;93418.00;4952110;28;20384;-75
2021/01/16 10:20:06;;;;;;;15.50;10.00;;;;;;;3.92;37.63;93418.84;4956639;28;20538;-75
2021/01/16 10:22:33;;;;;;;15.18;10.45;;;;;;;3.80;36.89;93415.69;4954775;28;20033;-75
2021/01/16 10:25:00;;;;;;;15.00;9.57;;;;;;;3.75;37.06;93418.25;4958440;28;20034;-75
2021/01/16 10:27:43;;;;;;;29.90;19.05;;;;;;;3.90;37.92;93409.69;4953896;28;20526;-75
2021/01/16 10:30:38;;;;;;;32.50;19.42;;;;;;;4.04;37.19;93404.75;4976850;28;20062;-74
2021/01/16 10:33:19;;;;;;;28.45;16.90;;;;;;;4.17;37.43;93396.41;4955730;28;20112;-75
2021/01/16 10:36:04;;;;;;;17.50;11.70;;;;;;;4.08;36.42;93392.75;4972137;28;20039;-75
2021/01/16 10:38:39;;;;;;;14.95;10.30;;;;;;;4.10;36.34;93395.91;4953503;28;20604;-75
2021/01/16 10:41:07;;;;;;;30.02;17.08;;;;;;;3.93;36.25;93396.09;4952232;28;20078;-74
2021/01/16 10:43:34;;;;;;;12.75;8.88;;;;;;;4.12;35.81;93384.13;4958088;28;20026;-75
2021/01/16 10:46:11;;;;;;;10.38;8.35;;;;;;;4.07;35.96;93384.09;4958178;28;20527;-75
2021/01/16 10:48:39;;;;;;;9.40;7.30;;;;;;;4.31;34.63;93379.97;4955287;28;20074;-75
2021/01/16 10:51:09;;;;;;;24.15;15.20;;;;;;;4.38;34.59;93364.03;4957262;28;20038;-75
2021/01/16 10:53:40;;;;;;;13.15;7.88;;;;;;;4.54;34.27;93362.22;4953249;28;20054;-78
2021/01/16 10:56:15;;;;;;;12.80;7.47;;;;;;;4.66;33.38;93366.13;4951497;28;20105;-76
2021/01/16 10:58:44;;;;;;;15.15;9.45;;;;;;;4.84;33.98;93361.41;4956528;28;20041;-75
2021/01/16 11:01:11;;;;;;;25.10;18.98;;;;;;;4.89;32.42;93377.88;4954343;28;20031;-76
2021/01/16 11:03:37;;;;;;;15.77;7.55;;;;;;;4.97;31.64;93364.28;4952351;28;20419;-75
2021/01/16 11:06:11;;;;;;;11.52;6.20;;;;;;;5.01;31.58;93356.69;4954210;28;20051;-75
2021/01/16 11:08:39;;;;;;;8.95;5.15;;;;;;;4.91;31.17;93361.91;4954952;28;20039;-76
2021/01/16 11:11:25;;;;;;;11.55;7.43;;;;;;;4.92;31.63;93373.97;4954541;28;20058;-75
2021/01/16 11:13:51;;;;;;;8.50;6.07;;;;;;;5.02;30.84;93360.88;4953961;28;20039;-75
2021/01/16 11:16:23;;;;;;;7.38;6.22;;;;;;;5.20;31.14;93355.84;4963381;28;20037;-76
2021/01/16 11:18:49;;;;;;;9.18;5.78;;;;;;;5.23;31.34;93365.00;4959837;28;20055;-75
2021/01/16 11:21:36;;;;;;;9.10;6.22;;;;;;;5.31;31.29;93355.81;4959323;28;20815;-76
2021/01/16 11:24:12;;;;;;;10.77;6.28;;;;;;;4.95;31.26;93357.72;4959383;28;20050;-76
2021/01/16 11:26:47;;;;;;;8.55;5.78;;;;;;;4.68;31.51;93356.19;4952969;28;20534;-75
2021/01/16 11:29:17;;;;;;;8.82;6.40;;;;;;;4.42;32.10;93366.91;4955784;28;20055;-75
2021/01/16 11:31:48;;;;;;;11.93;6.22;;;;;;;4.15;32.25;93351.44;4961707;28;20082;-75
2021/01/16 11:34:21;;;;;;;8.73;6.05;;;;;;;3.87;32.78;93345.63;4960595;28;20641;-75
2021/01/16 11:37:05;;;;;;;8.38;5.80;;;;;;;3.78;32.82;93334.13;4957790;28;20046;-76
2021/01/16 11:39:50;;;;;;;12.32;7.72;;;;;;;3.57;33.42;93329.84;4953574;28;20055;-76
2021/01/16 11:42:19;;;;;;;12.43;9.18;;;;;;;3.64;33.71;93329.63;4959695;28;20038;-75
2021/01/16 11:45:00;;;;;;;11.00;8.00;;;;;;;3.80;34.58;93347.72;4963243;28;20046;-75
2021/01/16 11:47:27;;;;;;;13.25;8.95;;;;;;;3.58;33.42;93349.72;4980187;28;20581;-75